sensor_id;sensor_type;location;lat;lon;timestamp;pressure;altitude;pressure_sealevel;temperature;humidity
23253;BME280;11795;47.054;15.408;2023-05-31T00:00:00;97660;;;16.7;56.4
23253;BME280;11795;47.054;15.408;2023-05-31T00:02:00;97660;;;16.9;56.1
23253;BME280;11795;47.054;15.408;2023-05-31T00:04:01;97660;;;16.7;56.4
23253;BME280;11795;47.054;15.408;2023-05-31T00:06:01;97660;;;16.9;56.4
23253;BME280;11795;47.054;15.408;2023-05-31T00:08:00;97660;;;16.8;56.5
23253;BME280;11795;47.054;15.408;2023-05-31T00:10:01;97650;;;16.6;56.8
23253;BME280;11795;47.054;15.408;2023-05-31T00:12:01;97650;;;16.8;56.3
23253;BME280;11795;47.054;15.408;2023-05-31T00:14:00;97650;;;16.6;56.8
23253;BME280;11795;47.054;15.408;2023-05-31T00:16:00;97650;;;16.7;56.9
23253;BME280;11795;47.054;15.408;2023-05-31T00:18:00;97650;;;16.6;57.0
23253;BME280;11795;47.054;15.408;2023-05-31T00:20:00;97650;;;16.5;57.3
23253;BME280;11795;47.054;15.408;2023-05-31T00:22:00;97650;;;16.6;56.8
23253;BME280;11795;47.054;15.408;2023-05-31T00:24:00;97640;;;16.5;57.3
23253;BME280;11795;47.054;15.408;2023-05-31T00:26:00;97650;;;16.5;57.2
23253;BME280;11795;47.054;15.408;2023-05-31T00:28:00;97650;;;16.4;57.2
23253;BME280;11795;47.054;15.408;2023-05-31T00:30:00;97650;;;16.4;57.4
23253;BME280;11795;47.054;15.408;2023-05-31T00:32:00;97650;;;16.5;56.9
23253;BME280;11795;47.054;15.408;2023-05-31T00:34:00;97650;;;16.4;57.3
23253;BME280;11795;47.054;15.408;2023-05-31T00:36:00;97650;;;16.4;57.3
23253;BME280;11795;47.054;15.408;2023-05-31T00:38:01;97640;;;16.4;57.2
23253;BME280;11795;47.054;15.408;2023-05-31T00:40:00;97650;;;16.4;57.3
23253;BME280;11795;47.054;15.408;2023-05-31T00:42:01;97650;;;16.5;56.7
23253;BME280;11795;47.054;15.408;2023-05-31T00:44:00;97640;;;16.4;57.0
23253;BME280;11795;47.054;15.408;2023-05-31T00:46:01;97640;;;16.4;56.8
23253;BME280;11795;47.054;15.408;2023-05-31T00:48:00;97640;;;16.5;56.4
23253;BME280;11795;47.054;15.408;2023-05-31T00:50:00;97640;;;16.4;56.6
23253;BME280;11795;47.054;15.408;2023-05-31T00:52:00;97640;;;16.5;55.9
23253;BME280;11795;47.054;15.408;2023-05-31T00:54:00;97640;;;16.4;56.3
23253;BME280;11795;47.054;15.408;2023-05-31T00:56:00;97640;;;16.4;56.4
23253;BME280;11795;47.054;15.408;2023-05-31T00:58:01;97640;;;16.4;56.3
23253;BME280;11795;47.054;15.408;2023-05-31T01:00:00;97640;;;16.3;56.6
23253;BME280;11795;47.054;15.408;2023-05-31T01:02:01;97640;;;16.5;55.8
23253;BME280;11795;47.054;15.408;2023-05-31T01:04:02;97640;;;16.3;55.8
23253;BME280;11795;47.054;15.408;2023-05-31T01:06:00;97640;;;16.3;55.7
23253;BME280;11795;47.054;15.408;2023-05-31T01:08:00;97640;;;16.4;55.5
23253;BME280;11795;47.054;15.408;2023-05-31T01:10:00;97640;;;16.3;55.7
23253;BME280;11795;47.054;15.408;2023-05-31T01:12:09;97640;;;16.3;56.3
23253;BME280;11795;47.054;15.408;2023-05-31T01:14:07;97640;;;16.2;56.4
23253;BME280;11795;47.054;15.408;2023-05-31T01:16:06;97630;;;16.4;55.0
23253;BME280;11795;47.054;15.408;2023-05-31T01:18:06;97640;;;16.2;55.1
23253;BME280;11795;47.054;15.408;2023-05-31T01:20:01;97630;;;16.2;55.1
23253;BME280;11795;47.054;15.408;2023-05-31T01:22:08;97630;;;16.3;54.4
23253;BME280;11795;47.054;15.408;2023-05-31T01:24:14;97630;;;16.2;54.7
23253;BME280;11795;47.054;15.408;2023-05-31T01:26:06;97630;;;16.4;53.8
23253;BME280;11795;47.054;15.408;2023-05-31T01:28:00;97630;;;16.3;53.9
23253;BME280;11795;47.054;15.408;2023-05-31T01:30:01;97630;;;16.2;53.8
23253;BME280;11795;47.054;15.408;2023-05-31T01:32:01;97630;;;16.4;53.1
23253;BME280;11795;47.054;15.408;2023-05-31T01:34:01;97630;;;16.3;53.0
23253;BME280;11795;47.054;15.408;2023-05-31T01:36:00;97630;;;16.3;53.0
23253;BME280;11795;47.054;15.408;2023-05-31T01:38:00;97630;;;16.3;52.5
23253;BME280;11795;47.054;15.408;2023-05-31T01:40:00;97630;;;16.2;52.7
23253;BME280;11795;47.054;15.408;2023-05-31T01:42:01;97630;;;16.4;51.9
23253;BME280;11795;47.054;15.408;2023-05-31T01:44:00;97630;;;16.3;52.2
23253;BME280;11795;47.054;15.408;2023-05-31T01:46:01;97630;;;16.2;52.4
23253;BME280;11795;47.054;15.408;2023-05-31T01:48:02;97630;;;16.3;51.8
23253;BME280;11795;47.054;15.408;2023-05-31T01:50:00;97640;;;16.2;52.1
23253;BME280;11795;47.054;15.408;2023-05-31T01:52:02;97630;;;16.5;51.6
23253;BME280;11795;47.054;15.408;2023-05-31T01:54:00;97640;;;16.3;51.9
23253;BME280;11795;47.054;15.408;2023-05-31T01:56:01;97640;;;16.3;51.9
23253;BME280;11795;47.054;15.408;2023-05-31T01:58:01;97630;;;16.4;51.6
23253;BME280;11795;47.054;15.408;2023-05-31T02:00:00;97640;;;16.2;51.9
23253;BME280;11795;47.054;15.408;2023-05-31T02:02:01;97640;;;16.4;51.3
23253;BME280;11795;47.054;15.408;2023-05-31T02:04:00;97640;;;16.3;51.6
23253;BME280;11795;47.054;15.408;2023-05-31T02:06:00;97640;;;16.3;51.6
23253;BME280;11795;47.054;15.408;2023-05-31T02:08:00;97640;;;16.4;51.0
23253;BME280;11795;47.054;15.408;2023-05-31T02:10:00;97650;;;16.3;51.1
23253;BME280;11795;47.054;15.408;2023-05-31T02:12:00;97640;;;16.5;50.6
23253;BME280;11795;47.054;15.408;2023-05-31T02:14:00;97640;;;16.3;51.0
23253;BME280;11795;47.054;15.408;2023-05-31T02:16:00;97650;;;16.3;51.1
23253;BME280;11795;47.054;15.408;2023-05-31T02:18:01;97650;;;16.4;50.7
23253;BME280;11795;47.054;15.408;2023-05-31T02:20:00;97640;;;16.2;51.0
23253;BME280;11795;47.054;15.408;2023-05-31T02:22:00;97640;;;16.4;50.8
23253;BME280;11795;47.054;15.408;2023-05-31T02:24:00;97640;;;16.2;51.2
23253;BME280;11795;47.054;15.408;2023-05-31T02:26:00;97640;;;16.2;51.3
23253;BME280;11795;47.054;15.408;2023-05-31T02:28:00;97640;;;16.3;51.0
23253;BME280;11795;47.054;15.408;2023-05-31T02:30:00;97640;;;16.1;52.1
23253;BME280;11795;47.054;15.408;2023-05-31T02:32:00;97650;;;16.3;51.9
23253;BME280;11795;47.054;15.408;2023-05-31T02:34:00;97650;;;15.9;53.6
23253;BME280;11795;47.054;15.408;2023-05-31T02:36:00;97640;;;15.9;53.9
23253;BME280;11795;47.054;15.408;2023-05-31T02:38:00;97650;;;15.9;54.5
23253;BME280;11795;47.054;15.408;2023-05-31T02:40:00;97650;;;15.8;54.5
23253;BME280;11795;47.054;15.408;2023-05-31T02:42:00;97650;;;15.9;54.3
23253;BME280;11795;47.054;15.408;2023-05-31T02:44:00;97650;;;15.6;55.2
23253;BME280;11795;47.054;15.408;2023-05-31T02:46:01;97650;;;15.6;55.2
23253;BME280;11795;47.054;15.408;2023-05-31T02:48:05;97650;;;15.7;55.1
23253;BME280;11795;47.054;15.408;2023-05-31T02:50:00;97660;;;15.6;55.6
23253;BME280;11795;47.054;15.408;2023-05-31T02:52:00;97660;;;15.7;55.2
23253;BME280;11795;47.054;15.408;2023-05-31T02:54:00;97660;;;15.4;56.0
23253;BME280;11795;47.054;15.408;2023-05-31T02:56:00;97660;;;15.4;56.2
23253;BME280;11795;47.054;15.408;2023-05-31T02:58:00;97660;;;15.6;55.6
23253;BME280;11795;47.054;15.408;2023-05-31T03:00:02;97660;;;15.5;56.2
23253;BME280;11795;47.054;15.408;2023-05-31T03:02:00;97660;;;15.6;56.0
23253;BME280;11795;47.054;15.408;2023-05-31T03:04:01;97660;;;15.5;56.8
23253;BME280;11795;47.054;15.408;2023-05-31T03:06:01;97670;;;15.4;57.8
23253;BME280;11795;47.054;15.408;2023-05-31T03:08:00;97670;;;15.4;57.5
23253;BME280;11795;47.054;15.408;2023-05-31T03:10:00;97670;;;15.3;58.0
23253;BME280;11795;47.054;15.408;2023-05-31T03:12:01;97670;;;15.4;57.8
23253;BME280;11795;47.054;15.408;2023-05-31T03:14:00;97670;;;15.2;58.3
23253;BME280;11795;47.054;15.408;2023-05-31T03:16:00;97670;;;15.1;58.8
23253;BME280;11795;47.054;15.408;2023-05-31T03:18:00;97670;;;15.2;59.3
23253;BME280;11795;47.054;15.408;2023-05-31T03:20:00;97680;;;15.1;59.7
23253;BME280;11795;47.054;15.408;2023-05-31T03:22:00;97670;;;15.2;59.5
23253;BME280;11795;47.054;15.408;2023-05-31T03:24:00;97680;;;15.1;60.2
23253;BME280;11795;47.054;15.408;2023-05-31T03:26:00;97680;;;15.0;60.7
23253;BME280;11795;47.054;15.408;2023-05-31T03:28:00;97680;;;15.0;61.1
23253;BME280;11795;47.054;15.408;2023-05-31T03:30:00;97680;;;14.8;62.1
23253;BME280;11795;47.054;15.408;2023-05-31T03:32:00;97680;;;14.9;62.4
23253;BME280;11795;47.054;15.408;2023-05-31T03:34:00;97680;;;14.8;62.9
23253;BME280;11795;47.054;15.408;2023-05-31T03:36:01;97680;;;14.6;63.8
23253;BME280;11795;47.054;15.408;2023-05-31T03:38:00;97680;;;14.7;63.5
23253;BME280;11795;47.054;15.408;2023-05-31T03:40:00;97680;;;14.6;63.7
23253;BME280;11795;47.054;15.408;2023-05-31T03:42:00;97680;;;14.8;63.5
23253;BME280;11795;47.054;15.408;2023-05-31T03:44:00;97680;;;14.6;64.0
23253;BME280;11795;47.054;15.408;2023-05-31T03:46:01;97690;;;14.5;64.3
23253;BME280;11795;47.054;15.408;2023-05-31T03:48:00;97680;;;14.7;63.7
23253;BME280;11795;47.054;15.408;2023-05-31T03:50:00;97680;;;14.6;64.2
23253;BME280;11795;47.054;15.408;2023-05-31T03:52:00;97680;;;14.9;63.7
23253;BME280;11795;47.054;15.408;2023-05-31T03:54:00;97680;;;14.7;64.2
23253;BME280;11795;47.054;15.408;2023-05-31T03:56:00;97670;;;14.7;64.2
23253;BME280;11795;47.054;15.408;2023-05-31T03:58:00;97680;;;14.9;63.6
23253;BME280;11795;47.054;15.408;2023-05-31T04:00:00;97670;;;14.8;64.1
23253;BME280;11795;47.054;15.408;2023-05-31T04:02:00;97680;;;15.1;63.5
23253;BME280;11795;47.054;15.408;2023-05-31T04:04:00;97670;;;15.0;63.5
23253;BME280;11795;47.054;15.408;2023-05-31T04:06:00;97670;;;15.0;64.0
23253;BME280;11795;47.054;15.408;2023-05-31T04:08:01;97670;;;15.2;63.6
23253;BME280;11795;47.054;15.408;2023-05-31T04:10:00;97670;;;15.1;63.7
23253;BME280;11795;47.054;15.408;2023-05-31T04:12:00;97670;;;15.4;63.0
23253;BME280;11795;47.054;15.408;2023-05-31T04:14:00;97680;;;15.2;63.1
23253;BME280;11795;47.054;15.408;2023-05-31T04:16:00;97680;;;15.2;63.1
23253;BME280;11795;47.054;15.408;2023-05-31T04:18:00;97680;;;15.5;62.4
23253;BME280;11795;47.054;15.408;2023-05-31T04:20:00;97680;;;15.4;62.4
23253;BME280;11795;47.054;15.408;2023-05-31T04:22:01;97680;;;15.7;61.9
23253;BME280;11795;47.054;15.408;2023-05-31T04:24:01;97680;;;15.6;62.0
23253;BME280;11795;47.054;15.408;2023-05-31T04:26:02;97680;;;15.5;63.0
23253;BME280;11795;47.054;15.408;2023-05-31T04:28:00;97680;;;15.7;62.0
23253;BME280;11795;47.054;15.408;2023-05-31T04:30:01;97680;;;15.7;62.3
23253;BME280;11795;47.054;15.408;2023-05-31T04:32:00;97680;;;15.9;62.0
23253;BME280;11795;47.054;15.408;2023-05-31T04:34:00;97680;;;15.7;62.3
23253;BME280;11795;47.054;15.408;2023-05-31T04:36:01;97680;;;15.6;62.9
23253;BME280;11795;47.054;15.408;2023-05-31T04:38:02;97690;;;15.9;62.1
23253;BME280;11795;47.054;15.408;2023-05-31T04:40:00;97690;;;15.8;62.6
23253;BME280;11795;47.054;15.408;2023-05-31T04:42:00;97690;;;16.0;62.2
23253;BME280;11795;47.054;15.408;2023-05-31T04:44:00;97690;;;16.1;62.0
23253;BME280;11795;47.054;15.408;2023-05-31T04:46:01;97690;;;16.0;62.1
23253;BME280;11795;47.054;15.408;2023-05-31T04:48:00;97690;;;16.3;60.9
23253;BME280;11795;47.054;15.408;2023-05-31T04:50:00;97690;;;16.2;61.2
23253;BME280;11795;47.054;15.408;2023-05-31T04:52:00;97690;;;16.4;60.9
23253;BME280;11795;47.054;15.408;2023-05-31T04:54:01;97690;;;16.4;60.6
23253;BME280;11795;47.054;15.408;2023-05-31T04:56:04;97700;;;16.5;60.4
23253;BME280;11795;47.054;15.408;2023-05-31T04:58:00;97700;;;16.5;60.0
23253;BME280;11795;47.054;15.408;2023-05-31T05:00:01;97700;;;16.4;60.0
23253;BME280;11795;47.054;15.408;2023-05-31T05:02:00;97700;;;16.5;59.8
23253;BME280;11795;47.054;15.408;2023-05-31T05:04:00;97700;;;16.5;59.6
23253;BME280;11795;47.054;15.408;2023-05-31T05:06:01;97710;;;16.6;58.9
23253;BME280;11795;47.054;15.408;2023-05-31T05:08:00;97710;;;16.7;57.7
23253;BME280;11795;47.054;15.408;2023-05-31T05:10:00;97710;;;16.6;58.0
23253;BME280;11795;47.054;15.408;2023-05-31T05:12:00;97700;;;16.8;57.4
23253;BME280;11795;47.054;15.408;2023-05-31T05:14:01;97710;;;16.7;57.4
23253;BME280;11795;47.054;15.408;2023-05-31T05:16:00;97710;;;16.6;57.8
23253;BME280;11795;47.054;15.408;2023-05-31T05:18:00;97700;;;16.8;57.4
23253;BME280;11795;47.054;15.408;2023-05-31T05:20:01;97700;;;16.8;57.1
23253;BME280;11795;47.054;15.408;2023-05-31T05:22:00;97710;;;17.0;56.5
23253;BME280;11795;47.054;15.408;2023-05-31T05:24:00;97710;;;16.8;57.3
23253;BME280;11795;47.054;15.408;2023-05-31T05:26:00;97710;;;16.8;56.9
23253;BME280;11795;47.054;15.408;2023-05-31T05:28:00;97700;;;17.0;56.1
23253;BME280;11795;47.054;15.408;2023-05-31T05:30:00;97700;;;16.9;56.5
23253;BME280;11795;47.054;15.408;2023-05-31T05:32:00;97700;;;17.1;54.8
23253;BME280;11795;47.054;15.408;2023-05-31T05:34:00;97700;;;17.1;54.0
23253;BME280;11795;47.054;15.408;2023-05-31T05:36:00;97700;;;17.0;54.5
23253;BME280;11795;47.054;15.408;2023-05-31T05:38:00;97700;;;17.2;54.2
23253;BME280;11795;47.054;15.408;2023-05-31T05:40:00;97700;;;17.2;54.3
23253;BME280;11795;47.054;15.408;2023-05-31T05:42:01;97700;;;17.3;54.3
23253;BME280;11795;47.054;15.408;2023-05-31T05:44:00;97700;;;17.3;54.2
23253;BME280;11795;47.054;15.408;2023-05-31T05:46:00;97710;;;17.4;54.6
23253;BME280;11795;47.054;15.408;2023-05-31T05:48:00;97710;;;17.5;54.3
23253;BME280;11795;47.054;15.408;2023-05-31T05:50:00;97710;;;17.6;53.8
23253;BME280;11795;47.054;15.408;2023-05-31T05:52:00;97710;;;17.6;54.2
23253;BME280;11795;47.054;15.408;2023-05-31T05:54:00;97710;;;17.6;53.8
23253;BME280;11795;47.054;15.408;2023-05-31T05:56:00;97710;;;17.5;53.8
23253;BME280;11795;47.054;15.408;2023-05-31T05:58:00;97710;;;17.7;52.9
23253;BME280;11795;47.054;15.408;2023-05-31T06:00:01;97710;;;17.7;53.2
23253;BME280;11795;47.054;15.408;2023-05-31T06:02:00;97710;;;17.8;52.0
23253;BME280;11795;47.054;15.408;2023-05-31T06:04:00;97710;;;17.9;51.7
23253;BME280;11795;47.054;15.408;2023-05-31T06:06:00;97720;;;17.9;51.7
23253;BME280;11795;47.054;15.408;2023-05-31T06:08:01;97720;;;18.1;50.8
23253;BME280;11795;47.054;15.408;2023-05-31T06:10:03;97720;;;18.0;51.3
23253;BME280;11795;47.054;15.408;2023-05-31T06:12:00;97720;;;18.2;50.4
23253;BME280;11795;47.054;15.408;2023-05-31T06:14:00;97720;;;18.2;50.7
23253;BME280;11795;47.054;15.408;2023-05-31T06:16:03;97720;;;18.3;50.9
23253;BME280;11795;47.054;15.408;2023-05-31T06:18:00;97720;;;18.5;51.0
23253;BME280;11795;47.054;15.408;2023-05-31T06:20:02;97720;;;18.6;52.8
23253;BME280;11795;47.054;15.408;2023-05-31T06:22:00;97720;;;18.7;53.8
23253;BME280;11795;47.054;15.408;2023-05-31T06:24:00;97730;;;18.8;54.6
23253;BME280;11795;47.054;15.408;2023-05-31T06:26:00;97730;;;18.8;54.1
23253;BME280;11795;47.054;15.408;2023-05-31T06:28:00;97730;;;18.7;54.6
23253;BME280;11795;47.054;15.408;2023-05-31T06:30:00;97730;;;18.6;54.7
23253;BME280;11795;47.054;15.408;2023-05-31T06:32:00;97730;;;18.4;54.5
23253;BME280;11795;47.054;15.408;2023-05-31T06:34:00;97740;;;18.2;55.0
23253;BME280;11795;47.054;15.408;2023-05-31T06:36:00;97740;;;18.1;55.4
23253;BME280;11795;47.054;15.408;2023-05-31T06:38:00;97740;;;18.3;54.5
23253;BME280;11795;47.054;15.408;2023-05-31T06:40:00;97740;;;18.3;55.1
23253;BME280;11795;47.054;15.408;2023-05-31T06:42:01;97740;;;18.5;54.9
23253;BME280;11795;47.054;15.408;2023-05-31T06:44:00;97740;;;18.7;53.4
23253;BME280;11795;47.054;15.408;2023-05-31T06:46:00;97750;;;18.9;54.4
23253;BME280;11795;47.054;15.408;2023-05-31T06:48:00;97740;;;19.2;51.9
23253;BME280;11795;47.054;15.408;2023-05-31T06:50:00;97740;;;19.2;51.7
23253;BME280;11795;47.054;15.408;2023-05-31T06:52:00;97740;;;19.3;52.7
23253;BME280;11795;47.054;15.408;2023-05-31T06:54:00;97740;;;19.6;51.6
23253;BME280;11795;47.054;15.408;2023-05-31T06:56:00;97740;;;19.8;51.6
23253;BME280;11795;47.054;15.408;2023-05-31T06:58:00;97740;;;20.1;49.9
23253;BME280;11795;47.054;15.408;2023-05-31T07:00:00;97750;;;20.1;49.3
23253;BME280;11795;47.054;15.408;2023-05-31T07:02:00;97750;;;20.2;49.2
23253;BME280;11795;47.054;15.408;2023-05-31T07:04:00;97740;;;20.3;47.5
23253;BME280;11795;47.054;15.408;2023-05-31T07:06:00;97740;;;20.2;46.8
23253;BME280;11795;47.054;15.408;2023-05-31T07:08:00;97740;;;20.3;47.3
23253;BME280;11795;47.054;15.408;2023-05-31T07:10:01;97740;;;20.3;48.1
23253;BME280;11795;47.054;15.408;2023-05-31T07:12:01;97740;;;20.5;48.0
23253;BME280;11795;47.054;15.408;2023-05-31T07:14:01;97740;;;20.8;47.6
23253;BME280;11795;47.054;15.408;2023-05-31T07:16:00;97740;;;20.9;45.9
23253;BME280;11795;47.054;15.408;2023-05-31T07:18:00;97740;;;21.1;46.2
23253;BME280;11795;47.054;15.408;2023-05-31T07:20:00;97740;;;21.2;47.8
23253;BME280;11795;47.054;15.408;2023-05-31T07:22:00;97740;;;21.3;47.1
23253;BME280;11795;47.054;15.408;2023-05-31T07:24:00;97740;;;21.5;45.2
23253;BME280;11795;47.054;15.408;2023-05-31T07:26:00;97740;;;21.3;45.0
23253;BME280;11795;47.054;15.408;2023-05-31T07:28:00;97740;;;21.4;44.1
23253;BME280;11795;47.054;15.408;2023-05-31T07:30:00;97740;;;21.2;44.2
23253;BME280;11795;47.054;15.408;2023-05-31T07:32:00;97740;;;21.2;45.1
23253;BME280;11795;47.054;15.408;2023-05-31T07:34:00;97750;;;21.4;45.2
23253;BME280;11795;47.054;15.408;2023-05-31T07:36:00;97740;;;21.4;44.6
23253;BME280;11795;47.054;15.408;2023-05-31T07:38:01;97740;;;21.7;44.5
23253;BME280;11795;47.054;15.408;2023-05-31T07:40:00;97740;;;21.7;44.6
23253;BME280;11795;47.054;15.408;2023-05-31T07:42:01;97750;;;21.6;45.2
23253;BME280;11795;47.054;15.408;2023-05-31T07:44:01;97740;;;21.7;44.8
23253;BME280;11795;47.054;15.408;2023-05-31T07:46:00;97740;;;21.8;44.4
23253;BME280;11795;47.054;15.408;2023-05-31T07:48:00;97740;;;22.0;44.2
23253;BME280;11795;47.054;15.408;2023-05-31T07:50:00;97740;;;22.1;44.3
23253;BME280;11795;47.054;15.408;2023-05-31T07:52:01;97740;;;22.2;44.8
23253;BME280;11795;47.054;15.408;2023-05-31T07:54:00;97740;;;22.4;44.5
23253;BME280;11795;47.054;15.408;2023-05-31T07:56:00;97740;;;22.4;44.2
23253;BME280;11795;47.054;15.408;2023-05-31T07:58:00;97740;;;22.5;43.9
23253;BME280;11795;47.054;15.408;2023-05-31T08:00:00;97740;;;22.3;44.0
23253;BME280;11795;47.054;15.408;2023-05-31T08:02:00;97740;;;22.2;44.2
23253;BME280;11795;47.054;15.408;2023-05-31T08:04:05;97740;;;22.4;44.2
23253;BME280;11795;47.054;15.408;2023-05-31T08:06:00;97740;;;22.4;44.4
23253;BME280;11795;47.054;15.408;2023-05-31T08:08:00;97740;;;22.6;44.5
23253;BME280;11795;47.054;15.408;2023-05-31T08:10:00;97740;;;22.5;44.7
23253;BME280;11795;47.054;15.408;2023-05-31T08:12:01;97740;;;22.1;45.8
23253;BME280;11795;47.054;15.408;2023-05-31T08:14:00;97740;;;22.1;45.4
23253;BME280;11795;47.054;15.408;2023-05-31T08:16:00;97750;;;21.9;46.1
23253;BME280;11795;47.054;15.408;2023-05-31T08:18:00;97740;;;21.9;46.3
23253;BME280;11795;47.054;15.408;2023-05-31T08:20:00;97740;;;22.1;46.3
23253;BME280;11795;47.054;15.408;2023-05-31T08:22:00;97740;;;22.3;46.7
23253;BME280;11795;47.054;15.408;2023-05-31T08:24:00;97740;;;22.6;46.3
23253;BME280;11795;47.054;15.408;2023-05-31T08:26:00;97750;;;22.6;45.6
23253;BME280;11795;47.054;15.408;2023-05-31T08:28:00;97750;;;22.6;45.2
23253;BME280;11795;47.054;15.408;2023-05-31T08:30:00;97750;;;22.3;45.8
23253;BME280;11795;47.054;15.408;2023-05-31T08:32:00;97750;;;22.3;46.0
23253;BME280;11795;47.054;15.408;2023-05-31T08:34:00;97750;;;22.2;46.6
23253;BME280;11795;47.054;15.408;2023-05-31T08:36:01;97750;;;22.1;45.7
23253;BME280;11795;47.054;15.408;2023-05-31T08:38:00;97750;;;22.3;45.4
23253;BME280;11795;47.054;15.408;2023-05-31T08:40:00;97750;;;22.0;45.6
23253;BME280;11795;47.054;15.408;2023-05-31T08:42:04;97750;;;22.2;45.4
23253;BME280;11795;47.054;15.408;2023-05-31T08:44:01;97760;;;22.4;45.1
23253;BME280;11795;47.054;15.408;2023-05-31T08:46:03;97750;;;22.3;45.5
23253;BME280;11795;47.054;15.408;2023-05-31T08:48:07;97750;;;22.2;45.2
23253;BME280;11795;47.054;15.408;2023-05-31T08:50:00;97760;;;22.2;45.6
23253;BME280;11795;47.054;15.408;2023-05-31T08:52:00;97750;;;21.7;46.6
23253;BME280;11795;47.054;15.408;2023-05-31T08:54:01;97750;;;22.0;46.5
23253;BME280;11795;47.054;15.408;2023-05-31T08:56:03;97760;;;22.0;46.8
23253;BME280;11795;47.054;15.408;2023-05-31T08:58:01;97760;;;22.1;46.2
23253;BME280;11795;47.054;15.408;2023-05-31T09:00:02;97760;;;22.1;46.3
23253;BME280;11795;47.054;15.408;2023-05-31T09:02:01;97760;;;22.0;46.4
23253;BME280;11795;47.054;15.408;2023-05-31T09:04:01;97760;;;22.2;45.9
23253;BME280;11795;47.054;15.408;2023-05-31T09:06:01;97760;;;21.8;47.0
23253;BME280;11795;47.054;15.408;2023-05-31T09:08:00;97760;;;22.0;46.6
23253;BME280;11795;47.054;15.408;2023-05-31T09:10:03;97770;;;22.1;46.5
23253;BME280;11795;47.054;15.408;2023-05-31T09:12:00;97770;;;22.3;46.4
23253;BME280;11795;47.054;15.408;2023-05-31T09:14:00;97770;;;22.5;45.7
23253;BME280;11795;47.054;15.408;2023-05-31T09:16:01;97760;;;22.4;45.8
23253;BME280;11795;47.054;15.408;2023-05-31T09:18:12;97760;;;22.4;45.8
23253;BME280;11795;47.054;15.408;2023-05-31T09:20:00;97770;;;22.5;45.2
23253;BME280;11795;47.054;15.408;2023-05-31T09:22:03;97760;;;22.5;44.9
23253;BME280;11795;47.054;15.408;2023-05-31T09:24:00;97770;;;22.8;44.9
23253;BME280;11795;47.054;15.408;2023-05-31T09:26:00;97770;;;22.7;45.6
23253;BME280;11795;47.054;15.408;2023-05-31T09:28:00;97770;;;23.0;45.0
23253;BME280;11795;47.054;15.408;2023-05-31T09:30:05;97760;;;23.0;44.9
23253;BME280;11795;47.054;15.408;2023-05-31T09:32:09;97770;;;22.9;44.3
23253;BME280;11795;47.054;15.408;2023-05-31T09:34:00;97760;;;23.0;44.1
23253;BME280;11795;47.054;15.408;2023-05-31T09:36:00;97770;;;22.6;44.5
23253;BME280;11795;47.054;15.408;2023-05-31T09:38:04;97770;;;22.5;45.4
23253;BME280;11795;47.054;15.408;2023-05-31T09:40:00;97760;;;22.6;45.4
23253;BME280;11795;47.054;15.408;2023-05-31T09:42:08;97760;;;23.2;45.1
23253;BME280;11795;47.054;15.408;2023-05-31T09:44:00;97760;;;23.4;43.9
23253;BME280;11795;47.054;15.408;2023-05-31T09:46:01;97760;;;23.5;45.2
23253;BME280;11795;47.054;15.408;2023-05-31T09:48:00;97760;;;23.7;43.4
23253;BME280;11795;47.054;15.408;2023-05-31T09:50:00;97750;;;23.8;43.1
23253;BME280;11795;47.054;15.408;2023-05-31T09:52:00;97760;;;23.8;42.8
23253;BME280;11795;47.054;15.408;2023-05-31T09:54:03;97750;;;24.2;42.2
23253;BME280;11795;47.054;15.408;2023-05-31T09:56:01;97750;;;24.3;41.6
23253;BME280;11795;47.054;15.408;2023-05-31T09:58:00;97750;;;24.3;40.7
23253;BME280;11795;47.054;15.408;2023-05-31T10:00:00;97750;;;24.3;40.6
23253;BME280;11795;47.054;15.408;2023-05-31T10:02:00;97740;;;24.6;40.4
23253;BME280;11795;47.054;15.408;2023-05-31T10:04:01;97750;;;25.0;40.1
23253;BME280;11795;47.054;15.408;2023-05-31T10:06:00;97750;;;25.0;40.3
23253;BME280;11795;47.054;15.408;2023-05-31T10:08:00;97750;;;25.0;39.4
23253;BME280;11795;47.054;15.408;2023-05-31T10:10:00;97750;;;24.6;39.8
23253;BME280;11795;47.054;15.408;2023-05-31T10:12:01;97750;;;24.5;40.3
23253;BME280;11795;47.054;15.408;2023-05-31T10:14:02;97750;;;24.8;40.5
23253;BME280;11795;47.054;15.408;2023-05-31T10:16:04;97750;;;24.6;39.6
23253;BME280;11795;47.054;15.408;2023-05-31T10:18:03;97740;;;24.7;40.2
23253;BME280;11795;47.054;15.408;2023-05-31T10:20:03;97740;;;24.5;40.9
23253;BME280;11795;47.054;15.408;2023-05-31T10:22:00;97750;;;24.3;40.8
23253;BME280;11795;47.054;15.408;2023-05-31T10:24:03;97740;;;24.6;40.7
23253;BME280;11795;47.054;15.408;2023-05-31T10:26:06;97740;;;24.6;41.6
23253;BME280;11795;47.054;15.408;2023-05-31T10:28:01;97740;;;24.7;40.7
23253;BME280;11795;47.054;15.408;2023-05-31T10:30:08;97740;;;24.3;41.1
23253;BME280;11795;47.054;15.408;2023-05-31T10:32:06;97750;;;24.0;42.2
23253;BME280;11795;47.054;15.408;2023-05-31T10:34:10;97740;;;23.8;42.3
23253;BME280;11795;47.054;15.408;2023-05-31T10:36:00;97740;;;23.7;42.3
23253;BME280;11795;47.054;15.408;2023-05-31T10:38:01;97740;;;23.6;42.8
23253;BME280;11795;47.054;15.408;2023-05-31T10:40:06;97740;;;23.8;42.8
23253;BME280;11795;47.054;15.408;2023-05-31T10:42:06;97740;;;23.8;43.3
23253;BME280;11795;47.054;15.408;2023-05-31T10:44:05;97740;;;24.0;42.5
23253;BME280;11795;47.054;15.408;2023-05-31T10:46:02;97740;;;23.8;42.7
23253;BME280;11795;47.054;15.408;2023-05-31T10:48:03;97740;;;23.7;42.9
23253;BME280;11795;47.054;15.408;2023-05-31T10:50:00;97750;;;23.8;43.1
23253;BME280;11795;47.054;15.408;2023-05-31T10:52:04;97740;;;23.2;44.2
23253;BME280;11795;47.054;15.408;2023-05-31T10:54:00;97750;;;23.0;44.4
23253;BME280;11795;47.054;15.408;2023-05-31T10:56:02;97750;;;22.9;44.4
23253;BME280;11795;47.054;15.408;2023-05-31T10:58:00;97750;;;22.9;44.1
23253;BME280;11795;47.054;15.408;2023-05-31T11:00:00;97750;;;22.9;44.0
23253;BME280;11795;47.054;15.408;2023-05-31T11:02:05;97750;;;22.9;44.4
23253;BME280;11795;47.054;15.408;2023-05-31T11:04:01;97750;;;23.0;44.4
23253;BME280;11795;47.054;15.408;2023-05-31T11:06:02;97750;;;23.0;44.5
23253;BME280;11795;47.054;15.408;2023-05-31T11:08:12;97750;;;23.1;44.1
23253;BME280;11795;47.054;15.408;2023-05-31T11:10:01;97750;;;23.0;44.2